Time;durP1;ratioP1;P1;durP2;ratioP2;P2;SDS_P1;SDS_P2;PMS_P1;PMS_P2;Temp;Humidity;BMP_temperature;BMP_pressure;BME280_temperature;BME280_humidity;BME280_pressure;Samples;Min_cycle;Max_cycle;Signal;HPM_P1;HPM_P2
2023/11/21 00:02:54;;;;;;;36.30;13.80;;;;;;;12.90;100.00;97903.44;67788;1279;1016426;-69
2023/11/21 00:05:56;;;;;;;35.20;13.90;;;;;;;12.87;100.00;97903.34;67753;1279;1017180;-69
2023/11/21 00:08:59;;;;;;;33.30;12.60;;;;;;;12.69;100.00;97906.13;67757;1279;1016755;-69
2023/11/21 00:12:02;;;;;;;36.60;13.00;;;;;;;12.75;100.00;97914.90;67783;1279;1016391;-69
2023/11/21 00:15:05;;;;;;;28.40;11.20;;;;;;;12.89;100.00;97916.37;67724;1279;1016192;-69
2023/11/21 00:18:07;;;;;;;31.70;12.30;;;;;;;12.75;100.00;97917.34;67769;1279;1016131;-69
2023/11/21 00:21:12;;;;;;;29.80;12.10;;;;;;;12.58;100.00;97921.72;67769;1279;1016907;-69
2023/11/21 00:24:15;;;;;;;30.10;12.80;;;;;;;12.53;100.00;97924.77;67757;1279;1018679;-68
2023/11/21 00:27:17;;;;;;;28.80;12.70;;;;;;;12.67;100.00;97925.70;67759;1279;1016384;-69
2023/11/21 00:30:22;;;;;;;26.90;11.60;;;;;;;12.56;100.00;97927.02;67812;1279;1016388;-68
2023/11/21 00:33:25;;;;;;;30.80;13.00;;;;;;;12.42;100.00;97928.11;67744;1279;1016329;-69
2023/11/21 00:36:31;;;;;;;30.10;12.60;;;;;;;12.31;100.00;97924.67;67717;1279;1016393;-69
2023/11/21 00:39:35;;;;;;;32.50;13.90;;;;;;;12.26;100.00;97933.00;67755;1278;1016506;-69
2023/11/21 00:42:37;;;;;;;35.60;14.40;;;;;;;12.21;100.00;97931.05;67750;1279;1019713;-69
2023/11/21 00:45:40;;;;;;;27.40;11.10;;;;;;;12.22;100.00;97937.11;67787;1279;1016009;-69
2023/11/21 00:48:43;;;;;;;28.90;10.20;;;;;;;12.21;100.00;97936.53;67741;1279;1016442;-69
2023/11/21 00:51:46;;;;;;;24.20;9.30;;;;;;;12.32;100.00;97939.80;67776;1279;1016431;-69
2023/11/21 00:54:49;;;;;;;25.30;9.50;;;;;;;12.46;100.00;97933.58;67744;1279;1016275;-69
2023/11/21 00:57:51;;;;;;;23.60;9.10;;;;;;;12.45;100.00;97934.16;67785;1279;1016505;-69
2023/11/21 01:00:54;;;;;;;29.30;12.00;;;;;;;12.46;100.00;97935.48;67791;1279;1016467;-69
2023/11/21 01:03:57;;;;;;;34.00;13.90;;;;;;;12.48;100.00;97938.68;67716;1279;1017396;-69
2023/11/21 01:06:59;;;;;;;23.50;9.10;;;;;;;12.62;100.00;97936.45;67772;1279;1015910;-69
2023/11/21 01:10:02;;;;;;;22.40;8.70;;;;;;;12.51;100.00;97936.90;67803;1278;1016423;-69
2023/11/21 01:13:05;;;;;;;;;;;;;;;12.45;100.00;97937.88;67768;1279;1016250;-68
2023/11/21 01:16:08;;;;;;;23.30;8.80;;;;;;;12.46;100.00;97936.75;67754;1279;1016390;-69
2023/11/21 01:19:10;;;;;;;22.20;8.60;;;;;;;12.62;100.00;97936.86;67774;1278;1016280;-69
2023/11/21 01:22:13;;;;;;;24.70;8.60;;;;;;;12.69;100.00;97939.63;67755;1279;1016261;-69
2023/11/21 01:25:16;;;;;;;20.90;7.50;;;;;;;12.47;100.00;97935.29;67772;1278;1018765;-68
2023/11/21 01:28:19;;;;;;;23.00;8.30;;;;;;;12.27;100.00;97942.53;67759;1278;1015969;-68
2023/11/21 01:31:22;;;;;;;23.90;8.20;;;;;;;12.34;100.00;97938.27;67782;1278;1016157;-68
2023/11/21 01:34:25;;;;;;;23.20;7.70;;;;;;;12.37;100.00;97934.89;67790;1278;1016950;-68
2023/11/21 01:37:27;;;;;;;23.20;7.90;;;;;;;12.28;100.00;97938.04;67764;1264;1019427;-69
2023/11/21 01:40:30;;;;;;;23.50;8.20;;;;;;;12.04;100.00;97939.45;67774;1278;1016297;-69
2023/11/21 01:43:32;;;;;;;23.20;8.20;;;;;;;11.87;100.00;97942.55;65251;1279;6389766;-69
2023/11/21 01:46:35;;;;;;;21.30;7.70;;;;;;;11.85;100.00;97938.90;67778;1278;1016397;-69
2023/11/21 01:49:37;;;;;;;22.20;8.40;;;;;;;11.90;100.00;97943.69;67732;1278;1016446;-69
2023/11/21 01:52:40;;;;;;;23.70;8.30;;;;;;;11.90;100.00;97944.92;67739;1278;1016432;-68
2023/11/21 01:55:43;;;;;;;21.50;8.60;;;;;;;11.88;100.00;97950.00;67766;1278;1016412;-69
2023/11/21 01:58:46;;;;;;;21.70;7.60;;;;;;;11.96;100.00;97951.52;67747;1278;1016048;-69
2023/11/21 02:01:50;;;;;;;22.10;7.80;;;;;;;12.02;100.00;97946.95;67783;1278;1016324;-69
2023/11/21 02:04:52;;;;;;;22.60;8.20;;;;;;;12.06;100.00;97951.08;67720;1279;1016243;-69
2023/11/21 02:08:15;;;;;;;21.10;7.60;;;;;;;11.97;100.00;97947.77;67754;1279;1016346;-68
2023/11/21 02:11:19;;;;;;;21.10;8.10;;;;;;;12.12;100.00;97951.27;67794;1279;1016434;-70
2023/11/21 02:14:24;;;;;;;22.90;7.50;;;;;;;12.07;100.00;97951.52;67781;1279;1016243;-69
2023/11/21 02:17:27;;;;;;;21.60;7.90;;;;;;;12.17;100.00;97954.73;67754;1279;1018628;-69
2023/11/21 02:20:31;;;;;;;20.90;7.70;;;;;;;12.13;100.00;97959.06;67758;1279;1015847;-68
2023/11/21 02:23:36;;;;;;;21.80;8.00;;;;;;;12.08;100.00;97954.94;67793;1279;1016497;-66
2023/11/21 02:26:39;;;;;;;21.70;7.50;;;;;;;12.07;100.00;97955.71;67756;1279;1016045;-68
2023/11/21 02:29:41;;;;;;;22.00;7.70;;;;;;;12.04;100.00;97958.55;67721;1279;1016228;-68
2023/11/21 02:32:44;;;;;;;21.30;7.90;;;;;;;11.99;100.00;97957.23;67785;1279;1017458;-68
2023/11/21 02:35:47;;;;;;;23.30;8.40;;;;;;;11.96;100.00;97960.77;67784;1279;1016562;-68
2023/11/21 02:38:49;;;;;;;23.30;9.40;;;;;;;12.00;100.00;97962.37;67760;1279;1016471;-69
2023/11/21 02:41:52;;;;;;;25.00;9.60;;;;;;;11.98;100.00;97964.27;67738;1279;1016438;-69
2023/11/21 02:44:54;;;;;;;25.30;10.10;;;;;;;11.93;100.00;97966.23;67792;1279;1016290;-69
2023/11/21 02:47:57;;;;;;;28.20;10.60;;;;;;;11.92;100.00;97969.64;67814;1279;1018504;-68
2023/11/21 02:50:59;;;;;;;23.30;8.60;;;;;;;11.89;100.00;97972.51;67741;1279;1018579;-68
2023/11/21 02:54:05;;;;;;;22.80;8.00;;;;;;;11.80;100.00;97970.79;67747;1279;1016404;-69
2023/11/21 02:57:08;;;;;;;24.10;8.50;;;;;;;11.72;100.00;97978.08;67772;1279;1016635;-69
2023/11/21 03:00:12;;;;;;;23.30;8.60;;;;;;;11.66;100.00;97977.48;67803;1279;1016525;-69
2023/11/21 03:03:16;;;;;;;21.40;7.80;;;;;;;11.64;100.00;97982.41;67717;1279;1016464;-69
2023/11/21 03:06:19;;;;;;;22.90;8.50;;;;;;;11.48;100.00;97985.88;67768;1279;1016024;-69
2023/11/21 03:09:22;;;;;;;24.40;8.80;;;;;;;11.42;100.00;97988.84;67751;1279;1016478;-69
2023/11/21 03:12:24;;;;;;;;;;;;;;;11.26;100.00;97988.08;67738;1279;1016484;-69
2023/11/21 03:15:27;;;;;;;24.20;8.80;;;;;;;11.19;100.00;97988.36;67787;1279;1016339;-69
2023/11/21 03:18:30;;;;;;;26.50;9.10;;;;;;;11.12;100.00;97989.02;67776;1279;1016188;-68
2023/11/21 03:21:32;;;;;;;22.70;8.60;;;;;;;11.15;100.00;97989.18;67740;1279;1016316;-69
2023/11/21 03:24:35;;;;;;;23.30;9.10;;;;;;;11.12;100.00;97987.46;67785;1279;1015790;-70
2023/11/21 03:27:38;;;;;;;25.50;9.70;;;;;;;11.14;100.00;97987.63;67772;1279;1016792;-70
2023/11/21 03:30:41;;;;;;;24.60;9.50;;;;;;;11.17;100.00;97989.02;67748;1278;1016371;-69
2023/11/21 03:33:43;;;;;;;24.30;9.60;;;;;;;11.16;100.00;97987.84;67787;1278;1018023;-69
2023/11/21 03:36:46;;;;;;;26.20;11.00;;;;;;;11.23;100.00;97986.95;67748;1278;1016330;-69
2023/11/21 03:39:49;;;;;;;27.50;11.50;;;;;;;11.37;100.00;97988.31;67784;1278;1016220;-69
2023/11/21 03:42:52;;;;;;;27.40;11.60;;;;;;;11.50;100.00;97987.69;67773;1278;1016489;-70
2023/11/21 03:45:54;;;;;;;27.80;11.70;;;;;;;11.59;100.00;97988.73;67750;1278;1019187;-70
2023/11/21 03:48:57;;;;;;;26.10;10.80;;;;;;;11.65;100.00;97994.59;67747;1278;1016446;-69
2023/11/21 03:51:59;;;;;;;26.20;11.00;;;;;;;11.73;100.00;98001.09;67777;1278;1016386;-68
2023/11/21 03:55:02;;;;;;;28.00;11.70;;;;;;;11.74;100.00;98000.66;67773;1278;1015661;-70
2023/11/21 03:58:05;;;;;;;26.90;11.10;;;;;;;11.67;100.00;97997.77;67733;1278;1016942;-69
2023/11/21 04:01:07;;;;;;;26.50;11.00;;;;;;;11.75;100.00;97996.38;67787;1278;1016208;-69
2023/11/21 04:04:10;;;;;;;25.70;9.50;;;;;;;11.76;100.00;98004.91;67757;1278;1015988;-69
2023/11/21 04:07:13;;;;;;;25.70;9.50;;;;;;;11.78;100.00;98010.84;67741;1278;1016324;-69
2023/11/21 04:10:16;;;;;;;22.80;8.50;;;;;;;11.57;100.00;98011.80;67779;1278;1016066;-68
2023/11/21 04:13:18;;;;;;;22.80;8.60;;;;;;;11.27;100.00;98012.52;67722;1278;1016369;-70
2023/11/21 04:16:21;;;;;;;23.80;9.30;;;;;;;11.08;100.00;98014.15;67740;1278;1016613;-69
2023/11/21 04:19:25;;;;;;;24.60;9.60;;;;;;;10.98;100.00;98018.95;67747;1278;1016511;-69
2023/11/21 04:22:28;;;;;;;27.20;10.70;;;;;;;11.00;100.00;98021.63;67777;1278;1016453;-69
2023/11/21 04:25:30;;;;;;;25.50;10.00;;;;;;;11.01;100.00;98023.30;67703;1279;1015998;-69
2023/11/21 04:28:33;;;;;;;25.50;9.70;;;;;;;11.12;100.00;98024.89;67722;1279;1016109;-69
2023/11/21 04:31:35;;;;;;;;;;;;;;;11.24;100.00;98020.30;67795;1279;1016217;-68
2023/11/21 04:34:38;;;;;;;28.10;11.10;;;;;;;11.39;100.00;98024.96;67797;1279;1016452;-68
2023/11/21 04:37:40;;;;;;;32.40;12.40;;;;;;;11.50;100.00;98026.40;67721;1279;1018880;-68
2023/11/21 04:40:43;;;;;;;45.50;15.70;;;;;;;11.68;100.00;98023.59;67720;1279;1016099;-68
2023/11/21 04:43:46;;;;;;;33.00;12.10;;;;;;;11.69;100.00;98021.54;67771;1279;1016562;-69
2023/11/21 04:46:48;;;;;;;29.50;11.30;;;;;;;11.61;100.00;98027.09;67772;1279;1016453;-69
2023/11/21 04:49:51;;;;;;;39.60;15.40;;;;;;;11.50;100.00;98034.75;67746;1279;1019641;-69
2023/11/21 04:52:54;;;;;;;35.50;14.10;;;;;;;11.33;100.00;98040.27;67756;1279;1016256;-69
2023/11/21 04:55:57;;;;;;;27.90;11.50;;;;;;;11.31;100.00;98039.20;67731;1279;1018977;-69
2023/11/21 04:58:59;;;;;;;28.10;11.00;;;;;;;11.31;100.00;98042.67;67736;1279;1015782;-69
2023/11/21 05:02:02;;;;;;;30.70;12.90;;;;;;;11.39;100.00;98047.48;67798;1279;1016252;-68
2023/11/21 05:05:07;;;;;;;34.20;14.10;;;;;;;11.26;100.00;98053.41;67763;1279;1016431;-69
2023/11/21 05:08:13;;;;;;;34.80;15.10;;;;;;;11.23;100.00;98053.29;67737;1279;1016460;-69
2023/11/21 05:11:17;;;;;;;33.30;13.80;;;;;;;11.26;100.00;98058.25;67771;1279;1016275;-67
2023/11/21 05:14:19;;;;;;;34.50;14.60;;;;;;;11.31;100.00;98061.23;67778;1279;1018194;-68
2023/11/21 05:17:22;;;;;;;36.30;15.90;;;;;;;11.42;100.00;98062.52;67757;1279;1016491;-68
2023/11/21 05:20:25;;;;;;;35.50;15.30;;;;;;;11.49;100.00;98062.72;67777;1279;1016336;-68
2023/11/21 05:23:27;;;;;;;35.20;15.20;;;;;;;11.55;100.00;98063.09;67760;1279;1016134;-68
2023/11/21 05:26:30;;;;;;;38.90;15.70;;;;;;;11.55;100.00;98065.73;67742;1279;1016423;-68
2023/11/21 05:29:32;;;;;;;38.60;15.70;;;;;;;11.62;100.00;98072.52;67746;1279;1018532;-69
2023/11/21 05:32:35;;;;;;;38.20;15.40;;;;;;;11.63;100.00;98077.37;67800;1279;1016454;-69
2023/11/21 05:35:37;;;;;;;36.10;15.40;;;;;;;11.63;100.00;98080.35;67722;1279;1016445;-69
2023/11/21 05:38:41;;;;;;;39.50;15.90;;;;;;;11.48;100.00;98078.86;67769;1279;1016395;-69
2023/11/21 05:41:44;;;;;;;38.00;15.80;;;;;;;11.47;100.00;98085.97;67717;1279;1016423;-69
2023/11/21 05:44:46;;;;;;;40.90;15.30;;;;;;;11.43;100.00;98090.30;67774;1278;1016298;-69
2023/11/21 05:47:49;;;;;;;37.40;14.70;;;;;;;11.51;100.00;98099.68;67791;1278;1016494;-68
2023/11/21 05:50:51;;;;;;;35.10;14.30;;;;;;;11.62;100.00;98098.46;67729;1278;1016179;-69
2023/11/21 05:53:54;;;;;;;;;;;;;;;11.69;100.00;98100.23;67749;1278;1016388;-69
2023/11/21 05:56:57;;;;;;;39.70;15.90;;;;;;;11.64;100.00;98100.92;67779;1278;1015933;-69
2023/11/21 06:00:00;;;;;;;39.50;16.10;;;;;;;11.60;100.00;98105.77;67727;1278;1016367;-69
2023/11/21 06:03:03;;;;;;;36.10;15.00;;;;;;;11.58;100.00;98106.30;67777;1279;1016489;-69
2023/11/21 06:06:06;;;;;;;37.20;15.20;;;;;;;11.62;100.00;98106.14;67737;1279;1016288;-67
2023/11/21 06:09:09;;;;;;;38.60;15.90;;;;;;;11.59;100.00;98108.31;67795;1279;1016087;-69
2023/11/21 06:12:11;;;;;;;;;;;;;;;11.71;100.00;98119.16;67768;1279;1016301;-69
2023/11/21 06:15:14;;;;;;;32.60;14.30;;;;;;;11.68;100.00;98125.49;67761;1279;1016512;-68
2023/11/21 06:18:19;;;;;;;32.40;12.80;;;;;;;11.76;100.00;98128.89;67778;1279;1016118;-69
2023/11/21 06:21:24;;;;;;;30.60;12.90;;;;;;;11.80;100.00;98127.20;67665;1280;1016423;-69
2023/11/21 06:24:26;;;;;;;;;;;;;;;11.74;100.00;98128.68;67670;1280;1016429;-69
2023/11/21 06:27:29;;;;;;;31.60;12.50;;;;;;;11.80;100.00;98125.95;67696;1280;1018746;-69
2023/11/21 06:30:32;;;;;;;31.90;12.80;;;;;;;11.82;100.00;98131.46;67684;1280;1016482;-68
2023/11/21 06:33:34;;;;;;;29.40;12.20;;;;;;;11.85;100.00;98137.66;67654;1280;1016378;-68
2023/11/21 06:36:37;;;;;;;28.00;11.70;;;;;;;11.95;100.00;98144.14;67652;1280;1015799;-68
2023/11/21 06:39:39;;;;;;;27.10;11.30;;;;;;;11.84;100.00;98153.70;67662;1280;1016429;-68
2023/11/21 06:42:44;;;;;;;31.00;12.30;;;;;;;11.88;100.00;98159.23;67613;1280;1016442;-68
2023/11/21 06:45:47;;;;;;;33.80;14.10;;;;;;;11.79;100.00;98162.27;67695;1280;1016490;-69
2023/11/21 06:48:50;;;;;;;32.90;13.60;;;;;;;11.76;100.00;98166.61;67680;1280;1016395;-68
2023/11/21 06:51:55;;;;;;;33.80;13.70;;;;;;;11.79;100.00;98167.93;67691;1280;1016236;-69
2023/11/21 06:54:58;;;;;;;34.10;14.10;;;;;;;11.86;100.00;98169.34;67709;1280;1016477;-68
2023/11/21 06:58:00;;;;;;;35.80;14.20;;;;;;;11.84;100.00;98169.65;67636;1280;1016457;-68
2023/11/21 07:01:06;;;;;;;38.40;16.20;;;;;;;11.94;100.00;98171.84;67679;1280;1016295;-69
2023/11/21 07:04:11;;;;;;;37.80;15.60;;;;;;;12.10;100.00;98171.57;67696;1280;1016428;-67
2023/11/21 07:07:14;;;;;;;34.70;14.80;;;;;;;12.14;100.00;98172.45;67685;1280;1016500;-69
2023/11/21 07:10:16;;;;;;;33.80;14.60;;;;;;;12.20;100.00;98167.78;67658;1280;1018411;-68
2023/11/21 07:13:19;;;;;;;33.90;14.40;;;;;;;12.07;100.00;98170.72;67674;1280;1016337;-68
2023/11/21 07:16:22;;;;;;;34.40;14.70;;;;;;;12.05;100.00;98165.08;67672;1280;1016225;-68
2023/11/21 07:19:26;;;;;;;36.20;15.40;;;;;;;12.12;100.00;98161.00;67695;1280;1016797;-68
2023/11/21 07:22:28;;;;;;;41.10;17.50;;;;;;;12.07;100.00;98155.85;67668;1280;1016550;-69
2023/11/21 07:25:32;;;;;;;37.30;17.10;;;;;;;12.09;100.00;98154.27;67688;1280;1017080;-69
2023/11/21 07:28:34;;;;;;;37.40;15.40;;;;;;;12.10;100.00;98160.49;67676;1280;1016430;-69
2023/11/21 07:31:38;;;;;;;36.30;15.50;;;;;;;12.08;100.00;98161.69;67647;1280;1016045;-69
2023/11/21 07:34:41;;;;;;;35.30;15.10;;;;;;;11.98;100.00;98164.41;67678;1280;1016378;-69
2023/11/21 07:37:44;;;;;;;37.00;15.00;;;;;;;11.83;100.00;98167.65;67697;1280;1016421;-68
2023/11/21 07:40:46;;;;;;;36.00;15.80;;;;;;;11.62;100.00;98174.63;67724;1280;1016498;-69
2023/11/21 07:43:49;;;;;;;38.00;16.50;;;;;;;11.59;100.00;98174.31;67658;1280;1016318;-68
2023/11/21 07:46:51;;;;;;;39.40;16.60;;;;;;;11.47;100.00;98180.30;67666;1280;1016075;-68
2023/11/21 07:49:55;;;;;;;35.90;16.70;;;;;;;11.38;100.00;98191.66;67722;1280;1018139;-68
2023/11/21 07:52:58;;;;;;;36.60;16.30;;;;;;;11.33;100.00;98197.23;67733;1280;1015575;-68
2023/11/21 07:56:01;;;;;;;40.20;16.50;;;;;;;11.15;100.00;98202.40;67680;1280;1016462;-69
2023/11/21 07:59:04;;;;;;;35.80;16.20;;;;;;;10.91;100.00;98202.41;67679;1280;1016489;-68
2023/11/21 08:02:16;;;;;;;36.90;16.90;;;;;;;10.83;100.00;98211.20;67679;1280;1017292;-68
2023/11/21 08:05:19;;;;;;;36.10;16.10;;;;;;;10.71;100.00;98214.69;67673;1280;1016601;-68
2023/11/21 08:08:22;;;;;;;36.10;16.20;;;;;;;10.53;100.00;98222.59;67692;1280;1015709;-69
2023/11/21 08:11:24;;;;;;;35.10;16.20;;;;;;;10.44;100.00;98224.61;67710;1280;1017295;-69
2023/11/21 08:14:27;;;;;;;36.10;16.10;;;;;;;10.34;100.00;98229.12;67684;1280;1016811;-69
2023/11/21 08:17:31;;;;;;;38.00;16.70;;;;;;;10.17;100.00;98231.66;67664;1280;1016271;-67
2023/11/21 08:20:36;;;;;;;39.00;16.30;;;;;;;9.88;100.00;98238.90;67675;1280;1016564;-68
2023/11/21 08:23:39;;;;;;;39.60;18.10;;;;;;;9.93;100.00;98245.40;67646;1280;1016471;-69
2023/11/21 08:26:43;;;;;;;40.00;17.90;;;;;;;9.92;100.00;98245.30;67707;1280;1016451;-69
2023/11/21 08:29:46;;;;;;;36.90;17.10;;;;;;;9.86;100.00;98246.36;67704;1280;1016395;-68
2023/11/21 08:32:48;;;;;;;39.80;17.80;;;;;;;9.96;100.00;98247.75;67723;1280;1016462;-69
2023/11/21 08:35:51;;;;;;;35.40;16.20;;;;;;;9.90;100.00;98249.23;67711;1280;1016122;-69
2023/11/21 08:38:54;;;;;;;39.60;16.90;;;;;;;9.86;100.00;98252.98;67611;1280;1016304;-68
2023/11/21 08:41:57;;;;;;;38.10;17.70;;;;;;;9.98;100.00;98249.36;67714;1280;1016089;-69
2023/11/21 08:44:59;;;;;;;32.90;15.10;;;;;;;10.09;100.00;98246.91;67682;1280;1016504;-69
2023/11/21 08:48:02;;;;;;;36.10;16.30;;;;;;;10.13;100.00;98249.05;67639;1280;1016447;-69
2023/11/21 08:51:04;;;;;;;36.20;16.20;;;;;;;10.18;100.00;98248.56;67708;1281;1016164;-69
2023/11/21 08:54:08;;;;;;;;;;;;;;;10.26;100.00;98247.52;67706;1280;1016392;-69
2023/11/21 08:57:10;;;;;;;34.20;14.80;;;;;;;10.35;100.00;98249.70;67641;1281;1018935;-69
2023/11/21 09:00:15;;;;;;;37.40;16.70;;;;;;;10.37;100.00;98251.84;67692;1280;1016080;-69
2023/11/21 09:03:18;;;;;;;39.20;17.80;;;;;;;10.48;100.00;98251.44;67672;1280;1016535;-68
2023/11/21 09:06:21;;;;;;;37.70;16.00;;;;;;;10.63;100.00;98249.00;67622;1280;1016274;-69
2023/11/21 09:09:24;;;;;;;;;;;;;;;10.58;100.00;98246.23;67689;1280;1016215;-68
2023/11/21 09:12:32;;;;;;;33.90;14.80;;;;;;;10.62;100.00;98247.19;67651;1280;1015992;-68
2023/11/21 09:15:35;;;;;;;36.80;15.30;;;;;;;10.63;100.00;98246.59;67643;1280;1016310;-69
2023/11/21 09:18:38;;;;;;;31.60;14.20;;;;;;;10.63;100.00;98250.73;67696;1280;1016454;-69
2023/11/21 09:21:40;;;;;;;33.70;14.30;;;;;;;10.53;100.00;98254.59;67657;1280;1016547;-69
2023/11/21 09:24:43;;;;;;;33.40;14.10;;;;;;;10.62;100.00;98251.69;67676;1280;1016927;-68
2023/11/21 09:27:46;;;;;;;34.20;14.80;;;;;;;10.62;100.00;98249.55;67684;1281;1016234;-69
2023/11/21 09:30:50;;;;;;;30.40;13.90;;;;;;;10.53;100.00;98244.58;67661;1280;1016221;-70
2023/11/21 09:33:52;;;;;;;31.60;13.50;;;;;;;10.64;100.00;98245.56;67675;1280;1016053;-68
2023/11/21 09:36:55;;;;;;;;;;;;;;;10.42;100.00;98242.20;67670;1280;1016334;-69
2023/11/21 09:39:57;;;;;;;36.30;14.70;;;;;;;10.41;100.00;98244.05;67650;1280;1016300;-69
2023/11/21 09:43:00;;;;;;;34.80;15.20;;;;;;;10.36;100.00;98243.35;67700;1280;1016083;-69
2023/11/21 09:46:03;;;;;;;34.70;15.40;;;;;;;10.44;100.00;98242.44;67670;1281;1016497;-68
2023/11/21 09:49:08;;;;;;;33.10;15.00;;;;;;;10.64;100.00;98241.91;67713;1280;1016227;-69
2023/11/21 09:52:11;;;;;;;40.00;17.40;;;;;;;10.57;100.00;98241.17;67635;1281;1016426;-69
2023/11/21 09:55:15;;;;;;;34.10;14.30;;;;;;;10.51;100.00;98243.86;67670;1280;1016055;-69
2023/11/21 09:58:20;;;;;;;42.80;19.00;;;;;;;10.52;100.00;98241.70;67659;1281;1016576;-69
2023/11/21 10:01:22;;;;;;;;;;;;;;;10.58;100.00;98244.25;67708;1280;1016388;-68
2023/11/21 10:04:25;;;;;;;40.70;17.50;;;;;;;10.54;100.00;98244.70;67666;1280;1016434;-69
2023/11/21 10:07:27;;;;;;;34.40;14.70;;;;;;;10.51;100.00;98248.55;67653;1280;1016425;-69
2023/11/21 10:10:30;;;;;;;36.10;15.50;;;;;;;10.55;100.00;98253.02;67681;1281;1016441;-69
2023/11/21 10:13:33;;;;;;;36.10;14.60;;;;;;;10.52;100.00;98257.45;67673;1281;1016169;-69
2023/11/21 10:16:37;;;;;;;34.40;14.80;;;;;;;10.56;100.00;98259.58;67648;1280;1016384;-69
2023/11/21 10:19:39;;;;;;;32.90;16.80;;;;;;;10.64;100.00;98258.19;67630;1281;1016264;-69
2023/11/21 10:22:42;;;;;;;32.80;14.60;;;;;;;10.63;100.00;98253.20;67690;1281;1018530;-69
2023/11/21 10:25:45;;;;;;;32.90;13.60;;;;;;;10.52;100.00;98256.39;67682;1280;1016403;-69
2023/11/21 10:28:47;;;;;;;32.00;14.80;;;;;;;10.51;100.00;98256.48;67638;1280;1016486;-68
2023/11/21 10:31:50;;;;;;;32.30;14.10;;;;;;;10.55;100.00;98257.90;67634;1281;1016106;-69
2023/11/21 10:34:53;;;;;;;32.10;14.10;;;;;;;10.60;100.00;98258.27;67664;1281;1016862;-69
2023/11/21 10:37:57;;;;;;;35.80;17.20;;;;;;;10.60;100.00;98261.79;67633;1280;1016495;-69
2023/11/21 10:41:00;;;;;;;35.60;16.80;;;;;;;10.49;100.00;98260.10;67633;1280;1016144;-69
2023/11/21 10:44:04;;;;;;;42.40;18.30;;;;;;;10.64;100.00;98260.98;67645;1280;1016823;-69
2023/11/21 10:47:07;;;;;;;41.50;18.90;;;;;;;10.66;100.00;98261.73;67648;1281;1016507;-69
2023/11/21 10:50:11;;;;;;;44.50;18.80;;;;;;;10.55;100.00;98264.56;67661;1280;1016442;-69
2023/11/21 10:53:15;;;;;;;43.90;19.60;;;;;;;10.46;100.00;98265.34;67660;1281;1016302;-69
2023/11/21 10:56:19;;;;;;;40.80;19.20;;;;;;;10.47;100.00;98269.30;67642;1280;1015937;-69
2023/11/21 10:59:25;;;;;;;44.70;20.30;;;;;;;10.43;100.00;98268.75;67676;1281;1016262;-70
2023/11/21 11:02:28;;;;;;;42.10;18.50;;;;;;;10.41;100.00;98270.13;67653;1281;1016164;-68
2023/11/21 11:05:32;;;;;;;45.80;19.80;;;;;;;10.42;100.00;98271.24;67702;1281;1016351;-69
2023/11/21 11:08:35;;;;;;;45.70;21.10;;;;;;;10.26;100.00;98274.08;67701;1281;1016044;-69
2023/11/21 11:11:40;;;;;;;54.80;23.40;;;;;;;10.26;100.00;98271.48;67680;1280;1016287;-69
2023/11/21 11:14:44;;;;;;;64.30;28.50;;;;;;;10.26;100.00;98273.04;67681;1257;1016254;-69
2023/11/21 11:17:47;;;;;;;51.00;22.90;;;;;;;10.45;100.00;98269.10;67677;1280;1015706;-69
2023/11/21 11:20:50;;;;;;;46.00;20.10;;;;;;;10.07;100.00;98265.23;67627;1280;1016411;-67
2023/11/21 11:23:54;;;;;;;46.20;20.80;;;;;;;9.92;100.00;98264.10;67665;1280;1016349;-69
2023/11/21 11:26:57;;;;;;;48.80;21.40;;;;;;;9.94;100.00;98264.33;67689;1280;1016506;-68
2023/11/21 11:29:59;;;;;;;51.00;23.80;;;;;;;9.91;100.00;98263.65;67657;1280;1016268;-69
2023/11/21 11:33:07;;;;;;;45.40;20.00;;;;;;;9.95;100.00;98262.02;67654;1280;1016418;-69
2023/11/21 11:36:11;;;;;;;47.70;21.70;;;;;;;9.88;100.00;98266.30;67627;1280;1016078;-69
2023/11/21 11:39:15;;;;;;;50.90;22.50;;;;;;;9.92;100.00;98269.34;67654;1280;1018688;-69
2023/11/21 11:42:21;;;;;;;50.50;22.60;;;;;;;10.00;100.00;98271.48;67568;1280;1016436;-69
2023/11/21 11:45:24;;;;;;;46.20;20.60;;;;;;;10.19;100.00;98270.52;67645;1280;1016455;-69
2023/11/21 11:48:27;;;;;;;44.60;19.30;;;;;;;10.03;100.00;98269.69;67678;1280;1016330;-69
2023/11/21 11:51:31;;;;;;;39.90;18.00;;;;;;;9.99;100.00;98270.77;67644;1280;1017997;-69
2023/11/21 11:54:33;;;;;;;44.30;18.30;;;;;;;9.97;100.00;98275.17;67613;1280;1016491;-68
2023/11/21 11:57:36;;;;;;;43.70;19.00;;;;;;;9.85;100.00;98279.27;67643;1280;1016160;-68
2023/11/21 12:00:39;;;;;;;;;;;;;;;9.84;100.00;98283.48;67680;1280;1016438;-67
2023/11/21 12:03:43;;;;;;;40.90;17.70;;;;;;;9.88;100.00;98284.25;67639;1280;1016243;-68
2023/11/21 12:06:46;;;;;;;39.80;17.10;;;;;;;9.77;100.00;98287.30;67646;1280;1016479;-68
2023/11/21 12:09:49;;;;;;;43.30;18.50;;;;;;;9.68;100.00;98288.38;67653;1280;1015923;-69
2023/11/21 12:12:52;;;;;;;41.60;19.10;;;;;;;9.56;100.00;98287.11;67646;1280;1016381;-68
2023/11/21 12:15:54;;;;;;;41.30;18.40;;;;;;;9.49;100.00;98290.48;67675;1280;1016347;-69
2023/11/21 12:18:57;;;;;;;45.20;19.80;;;;;;;9.44;100.00;98293.98;67655;1280;1016512;-69
2023/11/21 12:22:00;;;;;;;46.80;19.50;;;;;;;9.41;100.00;98290.55;67626;1280;1016473;-69
2023/11/21 12:25:03;;;;;;;46.00;20.40;;;;;;;9.42;100.00;98293.60;67631;1280;1016214;-69
2023/11/21 12:28:06;;;;;;;45.70;19.80;;;;;;;9.52;100.00;98299.54;67677;1280;1017631;-69
2023/11/21 12:31:08;;;;;;;41.20;18.50;;;;;;;9.72;100.00;98303.88;67650;1280;1016466;-69
2023/11/21 12:34:11;;;;;;;;;;;;;;;9.57;100.00;98307.08;67689;1280;1016469;-68
2023/11/21 12:37:13;;;;;;;42.50;18.50;;;;;;;9.32;100.00;98313.93;67702;1280;1016433;-69
2023/11/21 12:40:17;;;;;;;43.20;19.50;;;;;;;9.22;100.00;98320.66;67612;1280;1016182;-66
2023/11/21 12:43:19;;;;;;;40.50;18.40;;;;;;;9.23;100.00;98324.83;67680;1280;1016192;-69
2023/11/21 12:46:25;;;;;;;44.40;19.70;;;;;;;9.11;100.00;98332.38;67652;1280;1016361;-67
2023/11/21 12:49:28;;;;;;;45.70;19.50;;;;;;;8.80;100.00;98335.66;67671;1280;1016400;-69
2023/11/21 12:52:30;;;;;;;42.70;18.30;;;;;;;8.68;100.00;98336.02;67638;1280;1016006;-69
2023/11/21 12:55:35;;;;;;;40.00;17.40;;;;;;;8.62;100.00;98332.58;67637;1280;1019204;-66
2023/11/21 12:58:39;;;;;;;43.70;17.80;;;;;;;8.61;100.00;98339.79;67651;1280;1015956;-69
2023/11/21 13:01:42;;;;;;;43.90;18.30;;;;;;;8.47;100.00;98345.65;67684;1280;1016324;-70
2023/11/21 13:04:51;;;;;;;40.90;17.30;;;;;;;8.41;100.00;98343.25;67627;1280;1016504;-69
2023/11/21 13:07:57;;;;;;;38.90;16.60;;;;;;;8.33;100.00;98348.37;67629;1280;1016414;-68
2023/11/21 13:11:00;;;;;;;37.50;16.20;;;;;;;8.17;100.00;98347.73;67650;1280;1016255;-69
2023/11/21 13:14:03;;;;;;;41.50;17.80;;;;;;;8.21;100.00;98352.77;67669;1280;1016600;-69
2023/11/21 13:17:07;;;;;;;38.00;16.10;;;;;;;8.22;100.00;98356.15;67639;1280;1016478;-68
2023/11/21 13:20:09;;;;;;;39.50;16.40;;;;;;;8.13;100.00;98365.41;67644;1280;1016448;-69
2023/11/21 13:23:12;;;;;;;39.90;16.90;;;;;;;8.08;100.00;98373.19;67684;1280;1016879;-69
2023/11/21 13:26:16;;;;;;;39.80;16.80;;;;;;;7.92;100.00;98370.64;67658;1280;1016132;-70
2023/11/21 13:29:20;;;;;;;41.30;17.30;;;;;;;7.82;100.00;98373.60;67679;1280;1016770;-69
2023/11/21 13:32:23;;;;;;;41.70;17.80;;;;;;;7.75;100.00;98372.76;67691;1280;1016225;-70
2023/11/21 13:35:32;;;;;;;39.30;17.10;;;;;;;7.71;100.00;98375.30;67645;1280;1016698;-69
2023/11/21 13:38:35;;;;;;;39.90;17.70;;;;;;;7.60;100.00;98381.45;67667;1280;1016450;-70
2023/11/21 13:41:41;;;;;;;38.10;16.90;;;;;;;7.54;100.00;98375.69;67631;1280;1016305;-70